createdAt,value
2016-08-13T00:00:20.419Z,0
2016-08-13T00:01:20.454Z,0
2016-08-13T00:02:20.484Z,0
2016-08-13T00:03:35.430Z,0
2016-08-13T00:04:20.524Z,0
2016-08-13T00:05:35.482Z,0
2016-08-13T00:06:35.503Z,0
2016-08-13T00:07:35.527Z,0
2016-08-13T00:08:20.630Z,0
2016-08-13T00:09:20.656Z,0
2016-08-13T00:10:35.604Z,0
2016-08-13T00:11:20.710Z,0
2016-08-13T00:12:35.660Z,0
2016-08-13T00:13:20.775Z,0
2016-08-13T00:14:20.783Z,0
2016-08-13T00:15:20.828Z,0
2016-08-13T00:16:20.851Z,0
2016-08-13T00:17:20.894Z,0
2016-08-13T00:18:20.905Z,0
2016-08-13T00:19:20.924Z,0
2016-08-13T00:20:35.866Z,0
2016-08-13T00:21:21.132Z,0
2016-08-13T00:22:21.007Z,0
2016-08-13T00:23:21.031Z,0
2016-08-13T00:24:21.051Z,0
2016-08-13T00:25:36.696Z,0
2016-08-13T00:26:36.082Z,0
2016-08-13T00:27:21.147Z,0
2016-08-13T00:28:21.157Z,0
2016-08-13T00:29:36.105Z,0
2016-08-13T00:30:21.219Z,0
2016-08-13T00:32:21.272Z,0
2016-08-13T00:33:21.299Z,0
2016-08-13T00:34:21.313Z,0
2016-08-13T00:35:21.356Z,0
2016-08-13T00:36:21.372Z,0
2016-08-13T00:37:21.408Z,0
2016-08-13T00:38:21.468Z,0
2016-08-13T00:39:21.451Z,0
2016-08-13T00:40:21.467Z,0
2016-08-13T00:41:21.486Z,0
2016-08-13T00:42:36.445Z,0
2016-08-13T00:43:21.547Z,0
2016-08-13T00:44:21.578Z,0
2016-08-13T00:45:21.602Z,0
2016-08-13T00:46:21.627Z,0
2016-08-13T00:47:36.588Z,0
2016-08-13T00:49:21.724Z,0
2016-08-13T00:50:21.738Z,0
2016-08-13T00:51:21.772Z,0
2016-08-13T00:52:21.789Z,0
2016-08-13T00:53:21.823Z,0
2016-08-13T00:54:21.838Z,0
2016-08-13T00:55:22.564Z,0
2016-08-13T00:56:21.949Z,0
2016-08-13T00:57:36.850Z,0
2016-08-13T00:58:21.955Z,0
2016-08-13T00:59:21.986Z,0
2016-08-13T01:00:22.004Z,0
2016-08-13T01:01:22.023Z,0
2016-08-13T01:02:22.046Z,0
2016-08-13T01:03:22.077Z,0
2016-08-13T01:04:22.097Z,0
2016-08-13T01:05:22.131Z,0
2016-08-13T01:06:37.079Z,0
2016-08-13T01:07:37.113Z,0
2016-08-13T01:08:22.207Z,0
2016-08-13T01:09:22.248Z,0
2016-08-13T01:10:37.182Z,0
2016-08-13T01:11:22.301Z,0
2016-08-13T01:12:23.016Z,0
2016-08-13T01:13:22.342Z,0
2016-08-13T01:14:22.378Z,0
2016-08-13T01:15:22.395Z,0
2016-08-13T01:16:22.416Z,0
2016-08-13T01:17:22.442Z,0
2016-08-13T01:18:22.475Z,0
2016-08-13T01:19:22.498Z,0
2016-08-13T01:20:22.526Z,0
2016-08-13T01:21:22.553Z,0
2016-08-13T01:22:22.579Z,0
2016-08-13T01:23:22.610Z,0
2016-08-13T01:24:22.637Z,0
2016-08-13T01:25:22.655Z,0
2016-08-13T01:26:22.676Z,0
2016-08-13T01:27:22.714Z,0
2016-08-13T01:28:22.793Z,0
2016-08-13T01:29:37.786Z,0
2016-08-13T01:30:22.805Z,0
2016-08-13T01:31:22.812Z,0
2016-08-13T01:32:22.835Z,0
2016-08-13T01:33:37.799Z,0
2016-08-13T01:34:22.902Z,0
2016-08-13T01:35:22.916Z,0
2016-08-13T01:36:22.950Z,0
2016-08-13T01:37:22.979Z,0
2016-08-13T01:38:37.936Z,0
2016-08-13T01:39:23.026Z,0
2016-08-13T01:40:23.044Z,0
2016-08-13T01:41:38.007Z,0
2016-08-13T01:42:23.100Z,0
2016-08-13T01:43:23.137Z,0
2016-08-13T01:44:23.154Z,0
2016-08-13T01:45:38.117Z,0
2016-08-13T01:46:23.221Z,0
2016-08-13T01:47:23.234Z,0
2016-08-13T01:48:23.274Z,0
2016-08-13T01:49:23.279Z,0
2016-08-13T01:50:38.237Z,0
2016-08-13T01:51:23.352Z,0
2016-08-13T01:53:23.386Z,0
2016-08-13T01:54:23.424Z,0
2016-08-13T01:55:23.450Z,0
2016-08-13T01:56:23.474Z,0
2016-08-13T01:57:23.494Z,0
2016-08-13T01:58:24.271Z,0
2016-08-13T01:59:23.552Z,0
2016-08-13T02:00:23.577Z,0
2016-08-13T02:01:38.538Z,0
2016-08-13T02:02:38.550Z,0
2016-08-13T02:03:24.347Z,0
2016-08-13T02:04:23.682Z,0
2016-08-13T02:05:23.704Z,0
2016-08-13T02:06:23.729Z,0
2016-08-13T02:07:38.682Z,0
2016-08-13T02:08:38.705Z,0
2016-08-13T02:09:38.761Z,0
2016-08-13T02:10:23.858Z,0
2016-08-13T02:11:23.859Z,0
2016-08-13T02:12:38.822Z,0
2016-08-13T02:13:23.910Z,0
2016-08-13T02:14:23.933Z,0
2016-08-13T02:15:23.970Z,0
2016-08-13T02:16:23.998Z,0
2016-08-13T02:17:38.960Z,0
2016-08-13T02:18:38.977Z,0
2016-08-13T02:19:24.076Z,0
2016-08-13T02:20:24.099Z,0
2016-08-13T02:22:39.079Z,0
2016-08-13T02:23:24.185Z,0
2016-08-13T02:24:24.203Z,0
2016-08-13T02:25:24.220Z,0
2016-08-13T02:26:24.255Z,0
2016-08-13T02:27:39.204Z,0
2016-08-13T02:28:24.305Z,0
2016-08-13T02:29:39.308Z,0
2016-08-13T02:30:39.330Z,0
2016-08-13T02:31:25.081Z,0
2016-08-13T02:32:54.263Z,0
2016-08-13T02:33:39.360Z,0
2016-08-13T02:34:24.491Z,0
2016-08-13T02:35:24.496Z,0
2016-08-13T02:36:39.441Z,0
2016-08-13T02:37:39.495Z,0
2016-08-13T02:38:24.581Z,0
2016-08-13T02:39:24.605Z,0
2016-08-13T02:40:24.674Z,0
2016-08-13T02:41:24.648Z,0
2016-08-13T02:42:24.688Z,0
2016-08-13T02:43:24.704Z,0
2016-08-13T02:44:39.652Z,0
2016-08-13T02:45:24.779Z,0
2016-08-13T02:46:24.779Z,0
2016-08-13T02:47:24.806Z,0
2016-08-13T02:48:39.747Z,0
2016-08-13T02:49:24.870Z,0
2016-08-13T02:50:24.896Z,0
2016-08-13T02:51:24.909Z,0
2016-08-13T02:52:24.931Z,0
2016-08-13T02:53:39.886Z,0
2016-08-13T02:54:25.694Z,0
2016-08-13T02:55:25.034Z,0
2016-08-13T02:56:25.046Z,0
2016-08-13T02:57:25.074Z,0
2016-08-13T02:58:40.034Z,0
2016-08-13T02:59:40.037Z,0
2016-08-13T03:00:25.148Z,0
2016-08-13T03:01:25.185Z,0
2016-08-13T03:02:25.198Z,0
2016-08-13T03:03:40.149Z,0
2016-08-13T03:04:40.170Z,0
2016-08-13T03:05:25.277Z,0
2016-08-13T03:06:25.311Z,0
2016-08-13T03:07:25.328Z,0
2016-08-13T03:08:40.282Z,0
2016-08-13T03:09:25.407Z,0
2016-08-13T03:10:25.404Z,0
2016-08-13T03:11:25.436Z,0
2016-08-13T03:12:25.473Z,0
2016-08-13T03:13:25.496Z,0
2016-08-13T03:14:25.535Z,0
2016-08-13T03:15:25.532Z,0
2016-08-13T03:16:25.572Z,0
2016-08-13T03:17:25.590Z,0
2016-08-13T03:18:25.619Z,0
2016-08-13T03:19:40.589Z,0
2016-08-13T03:20:40.585Z,0
2016-08-13T03:21:25.711Z,0
2016-08-13T03:22:40.644Z,0
2016-08-13T03:23:25.756Z,0
2016-08-13T03:24:25.769Z,0
2016-08-13T03:25:25.802Z,0
2016-08-13T03:26:25.839Z,0
2016-08-13T03:27:25.863Z,0
2016-08-13T03:28:40.804Z,0
2016-08-13T03:29:25.901Z,0
2016-08-13T03:30:40.951Z,0
2016-08-13T03:31:26.659Z,0
2016-08-13T03:32:40.900Z,0
2016-08-13T03:33:26.001Z,0
2016-08-13T03:34:26.045Z,0
2016-08-13T03:35:26.111Z,0
2016-08-13T03:36:41.013Z,0
2016-08-13T03:37:26.120Z,0
2016-08-13T03:38:26.841Z,0
2016-08-13T03:39:41.093Z,0
2016-08-13T03:40:26.207Z,0
2016-08-13T03:41:26.217Z,0
2016-08-13T03:42:26.248Z,0
2016-08-13T03:43:26.975Z,0
2016-08-13T03:44:26.299Z,0
2016-08-13T03:45:41.250Z,0
2016-08-13T03:46:26.353Z,0
2016-08-13T03:47:41.301Z,5
2016-08-13T03:48:41.324Z,5
2016-08-13T03:50:26.510Z,5
2016-08-13T03:52:41.433Z,5
2016-08-13T03:53:26.531Z,5
2016-08-13T03:54:26.559Z,5
2016-08-13T03:55:26.591Z,5
2016-08-13T03:56:26.606Z,5
2016-08-13T03:57:26.637Z,5
2016-08-13T03:58:26.662Z,10
2016-08-13T03:59:26.695Z,10
2016-08-13T04:00:26.710Z,10
2016-08-13T04:01:27.431Z,10
2016-08-13T04:02:26.770Z,15
2016-08-13T04:03:26.797Z,15
2016-08-13T04:04:26.818Z,15
2016-08-13T04:05:26.851Z,15
2016-08-13T04:06:26.881Z,20
2016-08-13T04:07:41.828Z,20
2016-08-13T04:09:26.962Z,25
2016-08-13T04:10:41.903Z,25
2016-08-13T04:11:27.003Z,25
2016-08-13T04:12:27.036Z,25
2016-08-13T04:13:27.062Z,25
2016-08-13T04:14:27.078Z,25
2016-08-13T04:15:27.101Z,25
2016-08-13T04:16:27.835Z,30
2016-08-13T04:17:27.157Z,30
2016-08-13T04:18:27.189Z,30
2016-08-13T04:19:27.210Z,25
2016-08-13T04:20:27.236Z,20
2016-08-13T04:21:27.270Z,20
2016-08-13T04:22:27.295Z,20
2016-08-13T04:23:27.317Z,20
2016-08-13T04:24:42.261Z,30
2016-08-13T04:25:27.363Z,40
2016-08-13T04:27:27.419Z,50
2016-08-13T04:28:27.452Z,45
2016-08-13T04:29:27.478Z,35
2016-08-13T04:30:27.563Z,30
2016-08-13T04:31:27.526Z,20
2016-08-13T04:32:27.552Z,20
2016-08-13T04:33:42.508Z,25
2016-08-13T04:34:42.532Z,20
2016-08-13T04:35:42.558Z,25
2016-08-13T04:36:28.369Z,25
2016-08-13T04:37:27.677Z,30
2016-08-13T04:38:42.676Z,30
2016-08-13T04:39:42.656Z,35
2016-08-13T04:41:27.784Z,30
2016-08-13T04:42:27.815Z,30
2016-08-13T04:43:27.837Z,35
2016-08-13T04:44:27.860Z,40
2016-08-13T04:45:28.595Z,45
2016-08-13T04:46:27.916Z,40
2016-08-13T04:47:27.940Z,45
2016-08-13T04:48:27.975Z,55
2016-08-13T04:49:42.924Z,80
2016-08-13T04:51:42.972Z,110
2016-08-13T04:52:28.074Z,130
2016-08-13T04:53:28.149Z,145
2016-08-13T04:54:28.137Z,180
2016-08-13T04:55:43.082Z,210
2016-08-13T04:56:28.184Z,215
2016-08-13T04:57:43.134Z,255
2016-08-13T04:58:28.235Z,250
2016-08-13T04:59:28.266Z,310
2016-08-13T05:00:28.283Z,355
2016-08-13T05:01:28.314Z,360
2016-08-13T05:02:28.356Z,420
2016-08-13T05:03:28.370Z,435
2016-08-13T05:04:28.390Z,440
2016-08-13T05:05:28.423Z,480
2016-08-13T05:07:28.476Z,450
2016-08-13T05:08:43.428Z,530
2016-08-13T05:09:28.542Z,515
2016-08-13T05:10:28.558Z,555
2016-08-13T05:11:43.518Z,575
2016-08-13T05:12:43.533Z,605
2016-08-13T05:13:29.340Z,585
2016-08-13T05:14:29.371Z,565
2016-08-13T05:15:43.629Z,525
2016-08-13T05:16:28.740Z,560
2016-08-13T05:17:43.688Z,540
2016-08-13T05:18:28.796Z,580
2016-08-13T05:19:28.821Z,530
2016-08-13T05:20:28.862Z,275
2016-08-13T05:21:28.888Z,130
2016-08-13T05:22:28.919Z,95
2016-08-13T05:23:43.873Z,70
2016-08-13T05:24:28.971Z,60
2016-08-13T05:25:29.001Z,60
2016-08-13T05:27:43.978Z,90
2016-08-13T05:28:44.021Z,110
2016-08-13T05:29:29.127Z,150
2016-08-13T05:30:44.071Z,225
2016-08-13T05:31:29.230Z,375
2016-08-13T05:32:29.206Z,630
2016-08-13T05:33:29.227Z,580
2016-08-13T05:34:29.261Z,250
2016-08-13T05:35:29.308Z,145
2016-08-13T05:36:29.322Z,135
2016-08-13T05:37:29.414Z,205
2016-08-13T05:38:29.442Z,565
2016-08-13T05:39:29.419Z,690
2016-08-13T05:40:44.381Z,805
2016-08-13T05:41:29.480Z,820
2016-08-13T05:42:44.428Z,890
2016-08-13T05:43:29.541Z,905
2016-08-13T05:44:29.573Z,950
2016-08-13T05:45:29.617Z,930
2016-08-13T05:46:44.551Z,900
2016-08-13T05:47:29.656Z,950
2016-08-13T05:48:29.684Z,975
2016-08-13T05:49:29.713Z,940
2016-08-13T05:50:29.753Z,840
2016-08-13T05:51:44.710Z,855
2016-08-13T05:52:44.741Z,950
2016-08-13T05:55:44.834Z,930
2016-08-13T05:56:29.947Z,850
2016-08-13T05:57:29.975Z,855
2016-08-13T05:58:44.948Z,945
2016-08-13T05:59:30.043Z,1010
2016-08-13T06:00:30.773Z,1070
2016-08-13T06:01:30.823Z,1115
2016-08-13T06:02:30.143Z,425
2016-08-13T06:03:30.175Z,380
2016-08-13T06:04:30.216Z,390
2016-08-13T06:06:30.978Z,400
2016-08-13T06:07:45.944Z,960
2016-08-13T06:08:30.345Z,1035
2016-08-13T06:09:45.307Z,1035
2016-08-13T06:10:30.424Z,1070
2016-08-13T06:11:30.459Z,1075
2016-08-13T06:12:45.410Z,1070
2016-08-13T06:13:30.523Z,1060
2016-08-13T06:14:45.481Z,1105
2016-08-13T06:15:30.585Z,1035
2016-08-13T06:16:30.623Z,1045
2016-08-13T06:18:30.686Z,990
2016-08-13T06:19:30.724Z,1080
2016-08-13T06:20:30.766Z,1115
2016-08-13T06:21:30.800Z,1090
2016-08-13T06:22:30.827Z,1120
2016-08-13T06:23:30.873Z,1085
2016-08-13T06:24:30.894Z,1120
2016-08-13T06:25:45.862Z,1055
2016-08-13T06:26:30.975Z,1100
2016-08-13T06:27:31.000Z,1085
2016-08-13T06:28:45.974Z,1100
2016-08-13T06:29:31.079Z,1090
2016-08-13T06:30:46.041Z,1030
2016-08-13T06:31:31.144Z,1010
2016-08-13T06:32:31.178Z,590
2016-08-13T06:33:31.218Z,950
2016-08-13T06:34:46.179Z,1040
2016-08-13T06:35:31.282Z,1100
2016-08-13T06:36:31.324Z,1040
2016-08-13T06:37:46.333Z,940
2016-08-13T06:38:46.369Z,950
2016-08-13T06:39:32.124Z,880
2016-08-13T06:40:46.393Z,940
2016-08-13T06:41:31.501Z,915
2016-08-13T06:42:31.541Z,845
2016-08-13T06:44:31.618Z,770
2016-08-13T06:45:31.647Z,795
2016-08-13T06:46:46.608Z,735
2016-08-13T06:47:31.727Z,735
2016-08-13T06:48:31.757Z,745
2016-08-13T06:49:31.785Z,725
2016-08-13T06:50:31.823Z,690
2016-08-13T06:52:31.906Z,665
2016-08-13T06:53:31.927Z,665
2016-08-13T06:54:31.968Z,670
2016-08-13T06:55:32.004Z,680
2016-08-13T06:56:46.989Z,685
2016-08-13T06:57:32.134Z,675
2016-08-13T06:58:32.112Z,690
2016-08-13T06:59:32.159Z,695
2016-08-13T07:00:32.184Z,735
2016-08-13T07:01:32.220Z,765
2016-08-13T07:02:47.199Z,1100
2016-08-13T07:03:47.225Z,1305
2016-08-13T07:04:32.335Z,1305
2016-08-13T07:05:32.390Z,1420
2016-08-13T07:06:32.410Z,1720
2016-08-13T07:07:32.437Z,1570
2016-08-13T07:08:32.481Z,1380
2016-08-13T07:09:32.512Z,1400
2016-08-13T07:10:32.551Z,1355
2016-08-13T07:11:32.578Z,1280
2016-08-13T07:12:32.626Z,1240
2016-08-13T07:13:32.650Z,1220
2016-08-13T07:14:32.694Z,1220
2016-08-13T07:15:32.728Z,1265
2016-08-13T07:16:47.692Z,1365
2016-08-13T07:17:47.742Z,1320
2016-08-13T07:18:32.857Z,1230
2016-08-13T07:19:32.886Z,1210
2016-08-13T07:20:32.929Z,1225
2016-08-13T07:21:32.952Z,1195
2016-08-13T07:22:32.993Z,1140
2016-08-13T07:23:33.049Z,1120
2016-08-13T07:24:47.992Z,1135
2016-08-13T07:25:33.103Z,1090
2016-08-13T07:26:33.144Z,1105
2016-08-13T07:27:33.175Z,1140
2016-08-13T07:28:33.208Z,1120
2016-08-13T07:29:48.184Z,1110
2016-08-13T07:30:33.995Z,1075
2016-08-13T07:31:34.017Z,1100
2016-08-13T07:32:33.350Z,1050
2016-08-13T07:33:49.019Z,1105
2016-08-13T07:34:48.350Z,1140
2016-08-13T07:35:33.474Z,1165
2016-08-13T07:36:48.434Z,1205
2016-08-13T07:37:33.545Z,1215
2016-08-13T07:38:33.603Z,1185
2016-08-13T07:39:33.666Z,1155
2016-08-13T07:40:33.664Z,1160
2016-08-13T07:41:34.389Z,1170
2016-08-13T07:42:33.775Z,1155
2016-08-13T07:43:33.764Z,1065
2016-08-13T07:44:33.803Z,1050
2016-08-13T07:45:48.762Z,1050
2016-08-13T07:46:48.808Z,1045
2016-08-13T07:47:33.918Z,985
2016-08-13T07:48:48.875Z,955
2016-08-13T07:50:03.838Z,1015
2016-08-13T07:50:48.993Z,1045
2016-08-13T07:51:34.057Z,995
2016-08-13T07:52:34.111Z,930
2016-08-13T07:53:34.126Z,995
2016-08-13T07:54:34.170Z,1005
2016-08-13T07:55:34.206Z,930
2016-08-13T07:56:34.240Z,960
2016-08-13T07:57:49.206Z,795
2016-08-13T07:58:34.371Z,995
2016-08-13T07:59:34.353Z,945
2016-08-13T08:00:34.386Z,985
2016-08-13T08:01:34.431Z,985
2016-08-13T08:02:34.471Z,975
2016-08-13T08:04:34.542Z,940
2016-08-13T08:06:04.427Z,930
2016-08-13T08:07:34.651Z,580
2016-08-13T08:08:34.692Z,730
2016-08-13T08:09:34.741Z,900
2016-08-13T08:10:34.760Z,910
2016-08-13T08:11:49.721Z,895
2016-08-13T08:12:34.834Z,880
2016-08-13T08:13:34.877Z,825
2016-08-13T08:14:49.829Z,875
2016-08-13T08:15:34.941Z,820
2016-08-13T08:16:34.974Z,865
2016-08-13T08:17:35.016Z,240
2016-08-13T08:18:49.976Z,870
2016-08-13T08:20:35.145Z,300
2016-08-13T08:21:50.075Z,370
2016-08-13T08:23:35.226Z,765
2016-08-13T08:24:35.275Z,385
2016-08-13T08:25:35.310Z,760
2016-08-13T08:26:36.045Z,680
2016-08-13T08:27:35.388Z,250
2016-08-13T08:28:35.410Z,785
2016-08-13T08:29:35.453Z,765
2016-08-13T08:30:50.418Z,690
2016-08-13T08:31:50.436Z,710
2016-08-13T08:32:35.558Z,350
2016-08-13T08:33:35.581Z,350
2016-08-13T08:34:50.558Z,700
2016-08-13T08:35:35.660Z,540
2016-08-13T08:36:35.696Z,670
2016-08-13T08:37:50.665Z,690
2016-08-13T08:38:35.774Z,690
2016-08-13T08:39:35.798Z,320
2016-08-13T08:40:35.834Z,330
2016-08-13T08:41:35.893Z,605
2016-08-13T08:42:35.944Z,430
2016-08-13T08:43:35.974Z,580
2016-08-13T08:44:35.963Z,295
2016-08-13T08:45:36.004Z,300
2016-08-13T08:46:36.040Z,620
2016-08-13T08:47:36.076Z,605
2016-08-13T08:48:36.127Z,585
2016-08-13T08:49:51.074Z,285
2016-08-13T08:50:51.165Z,570
2016-08-13T08:51:36.220Z,580
2016-08-13T08:53:36.282Z,235
2016-08-13T08:54:36.341Z,525
2016-08-13T08:55:36.353Z,330
2016-08-13T08:56:36.406Z,555
2016-08-13T08:57:36.423Z,270
2016-08-13T08:59:36.488Z,245
2016-08-13T09:00:36.533Z,210
2016-08-13T09:01:36.564Z,210
2016-08-13T09:02:36.605Z,245
2016-08-13T09:03:36.702Z,505
2016-08-13T09:04:36.667Z,355
2016-08-13T09:05:36.706Z,530
2016-08-13T09:06:36.740Z,305
2016-08-13T09:07:37.454Z,390
2016-08-13T09:08:36.796Z,270
2016-08-13T09:09:51.768Z,250
2016-08-13T09:10:36.868Z,330
2016-08-13T09:11:36.911Z,545
2016-08-13T09:12:36.949Z,570
2016-08-13T09:14:37.015Z,595
2016-08-13T09:15:37.038Z,580
2016-08-13T09:16:37.076Z,570
2016-08-13T09:17:37.108Z,575
2016-08-13T09:18:37.149Z,545
2016-08-13T09:19:37.178Z,380
2016-08-13T09:20:37.222Z,550
2016-08-13T09:21:37.245Z,335
2016-08-13T09:22:37.275Z,500
2016-08-13T09:24:52.288Z,230
2016-08-13T09:25:52.306Z,265
2016-08-13T09:26:37.449Z,410
2016-08-13T09:27:37.460Z,435
2016-08-13T09:29:37.538Z,295
2016-08-13T09:30:37.556Z,220
2016-08-13T09:31:37.595Z,210
2016-08-13T09:32:52.551Z,220
2016-08-13T09:33:37.666Z,380
2016-08-13T09:34:37.692Z,285
2016-08-13T09:35:37.746Z,255
2016-08-13T09:36:37.770Z,385
2016-08-13T09:37:37.792Z,410
2016-08-13T09:38:37.833Z,400
2016-08-13T09:39:37.860Z,405
2016-08-13T09:40:52.823Z,340
2016-08-13T09:41:37.953Z,405
2016-08-13T09:42:37.959Z,330
2016-08-13T09:44:38.035Z,265
2016-08-13T09:45:38.075Z,235
2016-08-13T09:46:38.106Z,385
2016-08-13T09:47:38.841Z,230
2016-08-13T09:48:38.225Z,200
2016-08-13T09:49:38.214Z,180
2016-08-13T09:50:53.165Z,360
2016-08-13T09:51:53.194Z,365
2016-08-13T09:52:38.311Z,195
2016-08-13T09:53:53.264Z,175
2016-08-13T09:54:38.379Z,260
2016-08-13T09:55:53.340Z,345
2016-08-13T09:56:53.364Z,330
2016-08-13T09:57:38.498Z,335
2016-08-13T09:58:38.514Z,325
2016-08-13T09:59:38.544Z,335
2016-08-13T10:00:38.582Z,175
2016-08-13T10:01:38.608Z,340
2016-08-13T10:02:53.576Z,355
2016-08-13T10:03:38.689Z,355
2016-08-13T10:05:53.671Z,350
2016-08-13T10:06:38.778Z,340
2016-08-13T10:07:38.827Z,205
2016-08-13T10:08:38.851Z,245
2016-08-13T10:09:53.832Z,355
2016-08-13T10:10:38.922Z,355
2016-08-13T10:11:38.953Z,355
2016-08-13T10:12:53.912Z,335
2016-08-13T10:13:53.947Z,340
2016-08-13T10:14:39.045Z,340
2016-08-13T10:15:39.075Z,350
2016-08-13T10:16:39.129Z,355
2016-08-13T10:17:54.079Z,350
2016-08-13T10:18:39.191Z,335
2016-08-13T10:19:39.232Z,330
2016-08-13T10:20:39.251Z,290
2016-08-13T10:21:39.287Z,195
2016-08-13T10:22:39.329Z,320
2016-08-13T10:23:54.278Z,305
2016-08-13T10:24:39.399Z,305
2016-08-13T10:25:39.446Z,320
2016-08-13T10:26:39.463Z,315
2016-08-13T10:27:54.417Z,175
2016-08-13T10:28:39.536Z,175
2016-08-13T10:29:54.481Z,270
2016-08-13T10:30:39.608Z,335
2016-08-13T10:31:39.632Z,330
2016-08-13T10:32:39.677Z,305
2016-08-13T10:33:39.695Z,300
2016-08-13T10:34:39.731Z,305
2016-08-13T10:35:39.770Z,170
2016-08-13T10:36:39.813Z,275
2016-08-13T10:37:39.830Z,280
2016-08-13T10:38:39.873Z,285
2016-08-13T10:39:54.818Z,290
2016-08-13T10:40:54.858Z,280
2016-08-13T10:41:39.974Z,280
2016-08-13T10:42:54.932Z,275
2016-08-13T10:43:40.040Z,270
2016-08-13T10:44:40.072Z,270
2016-08-13T10:45:40.118Z,270
2016-08-13T10:46:55.067Z,240
2016-08-13T10:47:40.168Z,265
2016-08-13T10:48:40.266Z,260
2016-08-13T10:49:40.250Z,250
2016-08-13T10:50:40.264Z,245
2016-08-13T10:51:40.311Z,245
2016-08-13T10:52:40.473Z,245
2016-08-13T10:54:40.402Z,240
2016-08-13T10:55:55.371Z,235
2016-08-13T10:56:55.403Z,230
2016-08-13T10:57:55.435Z,230
2016-08-13T10:58:40.534Z,235
2016-08-13T11:00:10.470Z,235
2016-08-13T11:00:40.612Z,230
2016-08-13T11:01:40.646Z,240
2016-08-13T11:02:40.668Z,240
2016-08-13T11:03:40.697Z,240
2016-08-13T11:04:40.735Z,240
2016-08-13T11:05:40.767Z,240
2016-08-13T11:06:55.773Z,245
2016-08-13T11:07:40.834Z,245
2016-08-13T11:08:40.872Z,240
2016-08-13T11:09:40.901Z,235
2016-08-13T11:10:40.929Z,235
2016-08-13T11:11:40.963Z,235
2016-08-13T11:12:41.008Z,230
2016-08-13T11:13:41.029Z,230
2016-08-13T11:14:41.069Z,170
2016-08-13T11:15:56.034Z,220
2016-08-13T11:16:41.124Z,165
2016-08-13T11:17:41.307Z,210
2016-08-13T11:18:41.889Z,160
2016-08-13T11:19:41.226Z,120
2016-08-13T11:20:41.264Z,115
2016-08-13T11:21:41.300Z,200
2016-08-13T11:22:42.732Z,210
2016-08-13T11:23:41.371Z,215
2016-08-13T11:24:42.101Z,215
2016-08-13T11:25:41.434Z,210
2016-08-13T11:26:41.458Z,205
2016-08-13T11:27:41.488Z,195
2016-08-13T11:28:41.531Z,195
2016-08-13T11:29:41.561Z,190
2016-08-13T11:30:41.577Z,190
2016-08-13T11:31:56.551Z,200
2016-08-13T11:32:41.673Z,200
2016-08-13T11:33:41.682Z,200
2016-08-13T11:34:41.729Z,170
2016-08-13T11:35:41.753Z,200
2016-08-13T11:36:41.782Z,135
2016-08-13T11:37:41.823Z,130
2016-08-13T11:38:41.856Z,130
2016-08-13T11:39:41.876Z,135
2016-08-13T11:41:56.885Z,220
2016-08-13T11:42:42.674Z,230
2016-08-13T11:43:42.006Z,225
2016-08-13T11:44:56.967Z,205
2016-08-13T11:45:42.090Z,235
2016-08-13T11:46:42.105Z,230
2016-08-13T11:47:57.065Z,235
2016-08-13T11:48:57.144Z,210
2016-08-13T11:49:42.207Z,165
2016-08-13T11:50:42.257Z,155
2016-08-13T11:51:42.267Z,210
2016-08-13T11:52:57.229Z,145
2016-08-13T11:54:42.363Z,145
2016-08-13T11:55:42.399Z,145
2016-08-13T11:56:42.426Z,150
2016-08-13T11:57:42.470Z,160
2016-08-13T11:58:57.417Z,170
2016-08-13T11:59:42.525Z,185
2016-08-13T12:01:42.581Z,165
2016-08-13T12:02:57.555Z,205
2016-08-13T12:03:42.657Z,240
2016-08-13T12:04:42.705Z,205
2016-08-13T12:05:42.729Z,180
2016-08-13T12:06:42.752Z,175
2016-08-13T12:07:57.767Z,230
2016-08-13T12:08:42.825Z,235
2016-08-13T12:10:42.879Z,235
2016-08-13T12:11:42.916Z,230
2016-08-13T12:12:43.019Z,230
2016-08-13T12:13:42.976Z,225
2016-08-13T12:14:57.944Z,225
2016-08-13T12:15:57.967Z,220
2016-08-13T12:16:43.068Z,220
2016-08-13T12:17:43.116Z,215
2016-08-13T12:18:43.137Z,215
2016-08-13T12:19:43.187Z,210
2016-08-13T12:20:43.216Z,210
2016-08-13T12:21:43.233Z,205
2016-08-13T12:22:43.266Z,215
2016-08-13T12:23:43.997Z,210
2016-08-13T12:25:43.366Z,230
2016-08-13T12:26:43.396Z,235
2016-08-13T12:27:58.362Z,225
2016-08-13T12:28:43.475Z,235
2016-08-13T12:29:43.501Z,235
2016-08-13T12:30:43.559Z,235
2016-08-13T12:31:44.257Z,230
2016-08-13T12:32:43.597Z,230
2016-08-13T12:33:58.550Z,215
2016-08-13T12:34:58.599Z,220
2016-08-13T12:35:43.703Z,160
2016-08-13T12:36:43.727Z,165
2016-08-13T12:37:58.686Z,195
2016-08-13T12:38:58.702Z,235
2016-08-13T12:39:43.818Z,245
2016-08-13T12:40:43.849Z,230
2016-08-13T12:41:43.879Z,240
2016-08-13T12:42:43.919Z,180
2016-08-13T12:43:43.947Z,235
2016-08-13T12:44:43.979Z,245
2016-08-13T12:45:44.010Z,245
2016-08-13T12:46:44.045Z,245
2016-08-13T12:47:44.073Z,255
2016-08-13T12:48:44.113Z,245
2016-08-13T12:49:44.149Z,180
2016-08-13T12:50:59.100Z,185
2016-08-13T12:51:59.128Z,215
2016-08-13T12:52:59.159Z,220
2016-08-13T12:53:44.276Z,230
2016-08-13T12:54:44.313Z,215
2016-08-13T12:55:44.336Z,210
2016-08-13T12:56:44.369Z,190
2016-08-13T12:57:44.396Z,225
2016-08-13T12:58:44.443Z,215
2016-08-13T12:59:44.465Z,215
2016-08-13T13:02:44.555Z,240
2016-08-13T13:03:44.591Z,195
2016-08-13T13:04:44.631Z,195
2016-08-13T13:05:44.664Z,190
2016-08-13T13:06:59.621Z,190
2016-08-13T13:07:44.717Z,190
2016-08-13T13:08:44.811Z,210
2016-08-13T13:09:44.789Z,230
2016-08-13T13:10:44.819Z,235
2016-08-13T13:11:44.850Z,240
2016-08-13T13:12:44.889Z,230
2016-08-13T13:13:44.921Z,210
2016-08-13T13:14:44.942Z,210
2016-08-13T13:15:44.978Z,225
2016-08-13T13:16:45.023Z,225
2016-08-13T13:17:45.036Z,225
2016-08-13T13:19:00.005Z,220
2016-08-13T13:20:00.039Z,220
2016-08-13T13:21:14.995Z,215
2016-08-13T13:21:45.180Z,215
2016-08-13T13:23:00.179Z,210
2016-08-13T13:23:45.230Z,215
2016-08-13T13:24:45.273Z,210
2016-08-13T13:25:45.297Z,210
2016-08-13T13:26:45.330Z,215
2016-08-13T13:27:45.372Z,210
2016-08-13T13:28:45.403Z,210
2016-08-13T13:29:45.427Z,210
2016-08-13T13:30:45.469Z,210
2016-08-13T13:31:45.515Z,210
2016-08-13T13:32:45.547Z,210
2016-08-13T13:33:45.565Z,210
2016-08-13T13:34:45.584Z,215
2016-08-13T13:36:00.556Z,220
2016-08-13T13:36:45.672Z,225
2016-08-13T13:38:00.631Z,225
2016-08-13T13:38:45.736Z,220
2016-08-13T13:39:45.761Z,210
2016-08-13T13:40:45.792Z,220
2016-08-13T13:42:45.850Z,235
2016-08-13T13:43:45.885Z,235
2016-08-13T13:45:00.846Z,220
2016-08-13T13:45:45.950Z,215
2016-08-13T13:46:45.979Z,215
2016-08-13T13:47:46.015Z,215
2016-08-13T13:48:46.047Z,210
2016-08-13T13:49:46.089Z,210
2016-08-13T13:51:01.037Z,210
2016-08-13T13:51:46.854Z,200
2016-08-13T13:52:46.181Z,200
2016-08-13T13:53:46.219Z,205
2016-08-13T13:54:46.290Z,205
2016-08-13T13:55:46.269Z,205
2016-08-13T13:56:46.317Z,195
2016-08-13T13:57:46.337Z,195
2016-08-13T13:58:46.382Z,195
2016-08-13T13:59:46.398Z,200
2016-08-13T14:00:46.431Z,205
2016-08-13T14:02:01.401Z,200
2016-08-13T14:02:46.897Z,205
2016-08-13T14:04:01.460Z,205
2016-08-13T14:04:46.573Z,200
2016-08-13T14:05:46.596Z,200
2016-08-13T14:06:46.623Z,185
2016-08-13T14:07:46.681Z,175
2016-08-13T14:08:46.687Z,170
2016-08-13T14:10:01.669Z,170
2016-08-13T14:10:46.768Z,170
2016-08-13T14:11:47.484Z,185
2016-08-13T14:12:46.836Z,220
2016-08-13T14:15:01.811Z,175
2016-08-13T14:16:01.842Z,180
2016-08-13T14:16:46.949Z,235
2016-08-13T14:18:01.914Z,240
2016-08-13T14:19:01.948Z,235
2016-08-13T14:19:47.042Z,235
2016-08-13T14:20:47.131Z,230
2016-08-13T14:21:47.106Z,215
2016-08-13T14:22:47.153Z,220
2016-08-13T14:24:02.152Z,220
2016-08-13T14:25:02.141Z,220
2016-08-13T14:26:17.099Z,215
2016-08-13T14:26:47.268Z,215
2016-08-13T14:27:47.302Z,175
2016-08-13T14:28:47.340Z,210
2016-08-13T14:29:47.371Z,215
2016-08-13T14:30:47.395Z,215
2016-08-13T14:31:48.128Z,215
2016-08-13T14:32:47.466Z,215
2016-08-13T14:34:02.421Z,215
2016-08-13T14:34:47.524Z,210
2016-08-13T14:35:47.561Z,200
2016-08-13T14:37:47.633Z,200
2016-08-13T14:38:47.656Z,190
2016-08-13T14:40:02.609Z,190
2016-08-13T14:40:47.718Z,190
2016-08-13T14:42:02.680Z,185